No es requerida especial atención con respecto al clima.   -   No hay avisos meteorológicos

Informes METAR

 

LEZL - Sevilla, Spain
Distancia de la estación: ESE 25km
Actualización: 14/12/2018 20:30
Despejado
Despejado
 Viento de variable
Viento: variable 4 km/h
Temperatura: 12°C
Rocío: 7°C
Humedad: 72%
Barómetro: 1027 hPa
Resumen: Despejado
Visibilidad: mayor de 10 km
2018/12/14 19:30 LEZL 141930Z VRB02KT CAVOK 12/07 Q1027 NOSIG
LEMO - Morón, Spain
Distancia de la estación: SE 65km
Actualización: 14/12/2018 20:00
Poco nuboso
Poco nuboso
 Viento de variable
Viento: variable 4 km/h
Temperatura: 9°C
Rocío: 6°C
Humedad: 82%
Barómetro: 1027 hPa
Nubes: Poco nuboso
Visibilidad: 10 km
Detalles de las nubes: Poco nuboso 1463 m
2018/12/14 19:00 LEMO 141900Z VRB02KT 9999 FEW048 09/06 Q1027 NOSIG
LEJR - Jeréz, Spain
Distancia de la estación: S 87km
Actualización: 14/12/2018 20:30
Despejado
Despejado
 Viento de ONO
Viento: ONO 11 km/h
Temperatura: 11°C
Rocío: 7°C
Humedad: 77%
Barómetro: 1027 hPa
Resumen: Despejado
Visibilidad: mayor de 10 km
2018/12/14 19:30 LEJR 141930Z 29006KT 260V320 CAVOK 11/07 Q1027
 
LERT - Rota, Spain
Distancia de la estación: S 101km
Actualización: 14/12/2018 20:00
Despejado
Despejado
 Viento de NO
Viento: NO 7 km/h
Temperatura: 13°C
Rocío: 8°C
Humedad: 72%
Barómetro: 1027 hPa
Resumen: Despejado
Visibilidad: mayor de 10 km
2018/12/14 19:00 LERT 141900Z 32004KT CAVOK 13/08 Q1027 NOSIG
LEMG - Málaga, Spain
Distancia de la estación: ESE 178km
Actualización: 14/12/2018 20:30
Poco nuboso
Poco nuboso
 Viento de ONO
Viento: ONO 28 km/h
Temperatura: 12°C
Rocío: 6°C
Humedad: 67%
Barómetro: 1026 hPa
Nubes: Poco nuboso
Visibilidad: 10 km
Detalles de las nubes: Poco nuboso 1372 m
2018/12/14 19:30 LEMG 141930Z 29015KT 9999 FEW045 12/06 Q1026 NOSIG
LEBA - Córdoba, Spain
Distancia de la estación: ENE 123km
Actualización: 14/12/2018 20:30
Despejado
Despejado
 Viento de SSE
Viento: SSE 7 km/h
Temperatura: 7°C
Sensación térmica: 6°C
Rocío: 6°C
Humedad: 93%
Barómetro: 1027 hPa
Nubes: Despejado
Visibilidad: 10 km
2018/12/14 19:30 LEBA 141930Z AUTO 15004KT 9999 NCD 07/06 Q1027
 
LEGR - Granada, Spain
Distancia de la estación: E 215km
Actualización: 14/12/2018 20:30
Despejado
Despejado
 Viento de SO
Viento: SO 15 km/h
Temperatura: 6°C
Sensación térmica: 3°C
Rocío: 3°C
Humedad: 81%
Barómetro: 1026 hPa
Resumen: Despejado
Visibilidad: mayor de 10 km
2018/12/14 19:30 LEGR 141930Z 22008KT CAVOK 06/03 Q1026
LEAM - Almería, Spain
Distancia de la estación: E 344km
Actualización: 14/12/2018 20:30
Despejado
Despejado
 Viento de NNO
Viento: NNO 19 km/h
Temperatura: 15°C
Rocío: -2°C
Humedad: 31%
Barómetro: 1023 hPa
Resumen: Despejado
Visibilidad: mayor de 10 km
2018/12/14 19:30 LEAM 141930Z 34010KT CAVOK 15/M02 Q1023
GCLP - Las Palmas/Aeropuerto, Spain
Distancia de la estación: SO 1410km
Actualización: 14/12/2018 20:30
Parcialmente nuboso
Parcialmente nuboso
 Viento de N
Viento: N 39 km/h
Temperatura: 19°C
Rocío: 13°C
Humedad: 68%
Barómetro: 1025 hPa
Nubes: Parcialmente nuboso
Visibilidad: 10 km
Detalles de las nubes: Parcialmente nuboso 914 m
2018/12/14 19:30 GCLP 141930Z 01021KT 9999 SCT030 19/13 Q1025 NOSIG
 
LEMD - Madrid/Barajas, Spain
Distancia de la estación: NNE 402km
Actualización: 14/12/2018 20:30
Despejado
Despejado
 Viento de variable
Viento: variable 4 km/h
Temperatura: 5°C
Rocío: 2°C
Humedad: 81%
Barómetro: 1025 hPa
Resumen: Despejado
Visibilidad: mayor de 10 km
2018/12/14 19:30 LEMD 141930Z VRB02KT CAVOK 05/02 Q1025 NOSIG
LEVD - Valladolid, Spain
Distancia de la estación: N 492km
Actualización: 14/12/2018 20:30
Poco nuboso
Poco nuboso
 Viento de SO
Viento: SO 11 km/h
Temperatura: 3°C
Sensación térmica: 0°C
Rocío: 2°C
Humedad: 93%
Barómetro: 1024 hPa
Nubes: Poco nuboso
Visibilidad: 10 km
Detalles de las nubes: Poco nuboso 1250 m
2018/12/14 19:30 LEVD 141930Z 23006KT 9999 FEW041 03/02 Q1024
LEBL - Barcelona, Spain
Distancia de la estación: NE 816km
Actualización: 14/12/2018 20:30
Poco nuboso
Poco nuboso
 Viento de N
Viento: N 11 km/h
Temperatura: 9°C
Sensación térmica: 7°C
Rocío: 8°C
Humedad: 94%
Barómetro: 1018 hPa
Nubes: Poco nuboso
Visibilidad: 10 km
Detalles de las nubes: Poco nuboso 1372 m
2018/12/14 19:30 LEBL 141930Z 35006KT 260V020 9999 FEW045 09/08 Q1018 NOSIG